sensor_id;sensor_type;location;lat;lon;timestamp;P1;durP1;ratioP1;P2;durP2;ratioP2
22949;SDS011;11641;51.018;4.474;2022-10-16T00:01:30;6.93;;;0.90;;
22949;SDS011;11641;51.018;4.474;2022-10-16T00:03:57;4.68;;;0.90;;
22949;SDS011;11641;51.018;4.474;2022-10-16T00:06:25;3.92;;;0.80;;
22949;SDS011;11641;51.018;4.474;2022-10-16T00:08:51;3.95;;;0.80;;
22949;SDS011;11641;51.018;4.474;2022-10-16T00:11:19;2.63;;;0.70;;
22949;SDS011;11641;51.018;4.474;2022-10-16T00:13:54;1.10;;;0.70;;
22949;SDS011;11641;51.018;4.474;2022-10-16T00:16:26;3.92;;;0.65;;
22949;SDS011;11641;51.018;4.474;2022-10-16T00:18:53;3.45;;;0.93;;
22949;SDS011;11641;51.018;4.474;2022-10-16T00:21:21;3.72;;;0.80;;
22949;SDS011;11641;51.018;4.474;2022-10-16T00:23:51;1.02;;;0.57;;
22949;SDS011;11641;51.018;4.474;2022-10-16T00:26:22;2.65;;;0.80;;
22949;SDS011;11641;51.018;4.474;2022-10-16T00:28:49;2.40;;;0.70;;
22949;SDS011;11641;51.018;4.474;2022-10-16T00:31:16;0.95;;;0.50;;
22949;SDS011;11641;51.018;4.474;2022-10-16T00:33:43;3.38;;;0.68;;
22949;SDS011;11641;51.018;4.474;2022-10-16T00:36:12;1.27;;;0.47;;
22949;SDS011;11641;51.018;4.474;2022-10-16T00:38:41;2.25;;;0.80;;
22949;SDS011;11641;51.018;4.474;2022-10-16T00:41:07;1.40;;;0.70;;
22949;SDS011;11641;51.018;4.474;2022-10-16T00:43:43;1.63;;;0.70;;
22949;SDS011;11641;51.018;4.474;2022-10-16T00:46:46;4.50;;;0.63;;
22949;SDS011;11641;51.018;4.474;2022-10-16T00:51:45;1.55;;;0.73;;
22949;SDS011;11641;51.018;4.474;2022-10-16T00:54:15;4.70;;;0.88;;
22949;SDS011;11641;51.018;4.474;2022-10-16T00:56:50;2.00;;;0.63;;
22949;SDS011;11641;51.018;4.474;2022-10-16T00:59:28;2.13;;;0.60;;
22949;SDS011;11641;51.018;4.474;2022-10-16T01:02:05;4.20;;;1.20;;
22949;SDS011;11641;51.018;4.474;2022-10-16T01:09:47;1.73;;;0.90;;
22949;SDS011;11641;51.018;4.474;2022-10-16T01:12:26;3.13;;;0.80;;
22949;SDS011;11641;51.018;4.474;2022-10-16T01:20:42;2.63;;;0.70;;
22949;SDS011;11641;51.018;4.474;2022-10-16T01:23:21;1.80;;;0.85;;
22949;SDS011;11641;51.018;4.474;2022-10-16T01:31:44;3.53;;;1.00;;
22949;SDS011;11641;51.018;4.474;2022-10-16T01:34:22;1.98;;;1.00;;
22949;SDS011;11641;51.018;4.474;2022-10-16T01:37:09;2.33;;;1.05;;
22949;SDS011;11641;51.018;4.474;2022-10-16T01:39:41;4.30;;;1.00;;
22949;SDS011;11641;51.018;4.474;2022-10-16T01:42:13;2.30;;;0.85;;
22949;SDS011;11641;51.018;4.474;2022-10-16T01:44:43;4.07;;;0.95;;
22949;SDS011;11641;51.018;4.474;2022-10-16T01:47:12;2.42;;;1.08;;
22949;SDS011;11641;51.018;4.474;2022-10-16T01:49:40;2.97;;;1.00;;
22949;SDS011;11641;51.018;4.474;2022-10-16T01:52:11;2.97;;;0.98;;
22949;SDS011;11641;51.018;4.474;2022-10-16T01:54:44;4.40;;;1.00;;
22949;SDS011;11641;51.018;4.474;2022-10-16T01:57:13;2.40;;;0.88;;
22949;SDS011;11641;51.018;4.474;2022-10-16T01:59:42;2.95;;;0.95;;
22949;SDS011;11641;51.018;4.474;2022-10-16T02:02:10;1.48;;;0.95;;
22949;SDS011;11641;51.018;4.474;2022-10-16T02:04:46;2.70;;;1.10;;
22949;SDS011;11641;51.018;4.474;2022-10-16T02:07:39;3.53;;;0.90;;
22949;SDS011;11641;51.018;4.474;2022-10-16T02:10:08;2.15;;;0.90;;
22949;SDS011;11641;51.018;4.474;2022-10-16T02:12:37;2.72;;;1.00;;
22949;SDS011;11641;51.018;4.474;2022-10-16T02:15:11;2.80;;;1.02;;
22949;SDS011;11641;51.018;4.474;2022-10-16T02:17:37;2.05;;;1.50;;
22949;SDS011;11641;51.018;4.474;2022-10-16T02:20:05;3.70;;;1.27;;
22949;SDS011;11641;51.018;4.474;2022-10-16T02:22:34;1.95;;;1.00;;
22949;SDS011;11641;51.018;4.474;2022-10-16T02:25:15;5.38;;;1.17;;
22949;SDS011;11641;51.018;4.474;2022-10-16T02:27:57;2.75;;;1.02;;
22949;SDS011;11641;51.018;4.474;2022-10-16T02:30:46;2.20;;;1.10;;
22949;SDS011;11641;51.018;4.474;2022-10-16T02:33:19;3.25;;;1.10;;
22949;SDS011;11641;51.018;4.474;2022-10-16T02:35:50;1.50;;;1.00;;
22949;SDS011;11641;51.018;4.474;2022-10-16T02:38:17;2.92;;;1.25;;
22949;SDS011;11641;51.018;4.474;2022-10-16T02:40:44;5.43;;;1.30;;
22949;SDS011;11641;51.018;4.474;2022-10-16T02:43:13;3.17;;;1.15;;
22949;SDS011;11641;51.018;4.474;2022-10-16T02:45:42;7.18;;;1.42;;
22949;SDS011;11641;51.018;4.474;2022-10-16T02:48:08;1.73;;;1.05;;
22949;SDS011;11641;51.018;4.474;2022-10-16T02:50:34;6.00;;;1.20;;
22949;SDS011;11641;51.018;4.474;2022-10-16T02:53:00;2.28;;;1.13;;
22949;SDS011;11641;51.018;4.474;2022-10-16T02:55:29;4.47;;;1.30;;
22949;SDS011;11641;51.018;4.474;2022-10-16T02:57:55;3.88;;;1.30;;
22949;SDS011;11641;51.018;4.474;2022-10-16T03:00:23;5.13;;;1.13;;
22949;SDS011;11641;51.018;4.474;2022-10-16T03:02:49;4.20;;;1.33;;
22949;SDS011;11641;51.018;4.474;2022-10-16T03:05:15;3.05;;;1.20;;
22949;SDS011;11641;51.018;4.474;2022-10-16T03:07:41;1.33;;;0.90;;
22949;SDS011;11641;51.018;4.474;2022-10-16T03:10:07;4.40;;;1.10;;
22949;SDS011;11641;51.018;4.474;2022-10-16T03:12:35;4.88;;;1.30;;
22949;SDS011;11641;51.018;4.474;2022-10-16T03:15:02;2.00;;;1.20;;
22949;SDS011;11641;51.018;4.474;2022-10-16T03:17:31;5.68;;;1.60;;
22949;SDS011;11641;51.018;4.474;2022-10-16T03:19:59;3.95;;;1.27;;
22949;SDS011;11641;51.018;4.474;2022-10-16T03:22:27;2.67;;;1.23;;
22949;SDS011;11641;51.018;4.474;2022-10-16T03:24:56;3.53;;;1.10;;
22949;SDS011;11641;51.018;4.474;2022-10-16T03:27:21;5.50;;;1.40;;
22949;SDS011;11641;51.018;4.474;2022-10-16T03:29:47;3.50;;;1.40;;
22949;SDS011;11641;51.018;4.474;2022-10-16T03:32:17;4.95;;;1.35;;
22949;SDS011;11641;51.018;4.474;2022-10-16T03:34:43;1.83;;;1.40;;
22949;SDS011;11641;51.018;4.474;2022-10-16T03:37:11;7.00;;;1.30;;
22949;SDS011;11641;51.018;4.474;2022-10-16T03:39:37;5.07;;;1.40;;
22949;SDS011;11641;51.018;4.474;2022-10-16T03:42:03;4.95;;;1.35;;
22949;SDS011;11641;51.018;4.474;2022-10-16T03:44:32;4.07;;;1.40;;
22949;SDS011;11641;51.018;4.474;2022-10-16T03:47:00;4.68;;;1.10;;
22949;SDS011;11641;51.018;4.474;2022-10-16T03:49:25;3.35;;;1.60;;
22949;SDS011;11641;51.018;4.474;2022-10-16T03:51:53;2.92;;;1.38;;
22949;SDS011;11641;51.018;4.474;2022-10-16T03:54:24;2.03;;;1.10;;
22949;SDS011;11641;51.018;4.474;2022-10-16T03:56:50;4.03;;;1.50;;
22949;SDS011;11641;51.018;4.474;2022-10-16T03:59:15;3.90;;;1.25;;
22949;SDS011;11641;51.018;4.474;2022-10-16T04:01:41;3.10;;;1.20;;
22949;SDS011;11641;51.018;4.474;2022-10-16T04:04:07;5.15;;;1.35;;
22949;SDS011;11641;51.018;4.474;2022-10-16T04:06:33;4.03;;;1.20;;
22949;SDS011;11641;51.018;4.474;2022-10-16T04:09:01;4.32;;;1.33;;
22949;SDS011;11641;51.018;4.474;2022-10-16T04:11:26;3.13;;;1.10;;
22949;SDS011;11641;51.018;4.474;2022-10-16T04:13:55;3.25;;;1.10;;
22949;SDS011;11641;51.018;4.474;2022-10-16T04:16:23;4.30;;;1.23;;
22949;SDS011;11641;51.018;4.474;2022-10-16T04:18:48;5.30;;;1.60;;
22949;SDS011;11641;51.018;4.474;2022-10-16T04:21:14;4.63;;;1.33;;
22949;SDS011;11641;51.018;4.474;2022-10-16T04:23:40;6.13;;;1.40;;
22949;SDS011;11641;51.018;4.474;2022-10-16T04:26:08;2.25;;;1.33;;
22949;SDS011;11641;51.018;4.474;2022-10-16T04:28:35;2.90;;;1.20;;
22949;SDS011;11641;51.018;4.474;2022-10-16T04:31:03;2.47;;;1.45;;
22949;SDS011;11641;51.018;4.474;2022-10-16T04:33:29;4.45;;;1.30;;
22949;SDS011;11641;51.018;4.474;2022-10-16T04:35:56;2.92;;;1.55;;
22949;SDS011;11641;51.018;4.474;2022-10-16T04:38:23;5.93;;;1.38;;
22949;SDS011;11641;51.018;4.474;2022-10-16T04:40:50;3.22;;;1.40;;
22949;SDS011;11641;51.018;4.474;2022-10-16T04:43:18;5.32;;;1.33;;
22949;SDS011;11641;51.018;4.474;2022-10-16T04:45:44;2.38;;;1.30;;
22949;SDS011;11641;51.018;4.474;2022-10-16T04:48:10;5.25;;;1.30;;
22949;SDS011;11641;51.018;4.474;2022-10-16T04:50:38;2.72;;;1.55;;
22949;SDS011;11641;51.018;4.474;2022-10-16T04:53:04;5.30;;;1.52;;
22949;SDS011;11641;51.018;4.474;2022-10-16T04:55:31;3.30;;;1.63;;
22949;SDS011;11641;51.018;4.474;2022-10-16T04:57:56;3.38;;;1.50;;
22949;SDS011;11641;51.018;4.474;2022-10-16T05:00:22;5.18;;;1.48;;
22949;SDS011;11641;51.018;4.474;2022-10-16T05:02:49;4.25;;;1.77;;
22949;SDS011;11641;51.018;4.474;2022-10-16T05:05:15;5.40;;;1.50;;
22949;SDS011;11641;51.018;4.474;2022-10-16T05:07:41;4.25;;;1.33;;
22949;SDS011;11641;51.018;4.474;2022-10-16T05:10:07;3.95;;;1.40;;
22949;SDS011;11641;51.018;4.474;2022-10-16T05:12:32;5.72;;;1.70;;
22949;SDS011;11641;51.018;4.474;2022-10-16T05:14:59;5.60;;;1.65;;
22949;SDS011;11641;51.018;4.474;2022-10-16T05:17:25;4.80;;;1.63;;
22949;SDS011;11641;51.018;4.474;2022-10-16T05:19:53;6.13;;;1.52;;
22949;SDS011;11641;51.018;4.474;2022-10-16T05:22:19;3.17;;;1.65;;
22949;SDS011;11641;51.018;4.474;2022-10-16T05:24:45;6.93;;;1.88;;
22949;SDS011;11641;51.018;4.474;2022-10-16T05:27:12;5.03;;;1.95;;
22949;SDS011;11641;51.018;4.474;2022-10-16T05:29:44;4.00;;;1.45;;
22949;SDS011;11641;51.018;4.474;2022-10-16T05:32:11;4.43;;;1.40;;
22949;SDS011;11641;51.018;4.474;2022-10-16T05:34:37;5.35;;;1.65;;
22949;SDS011;11641;51.018;4.474;2022-10-16T05:37:04;5.85;;;1.63;;
22949;SDS011;11641;51.018;4.474;2022-10-16T05:39:30;3.83;;;1.65;;
22949;SDS011;11641;51.018;4.474;2022-10-16T05:41:56;3.67;;;1.60;;
22949;SDS011;11641;51.018;4.474;2022-10-16T05:44:22;2.80;;;1.50;;
22949;SDS011;11641;51.018;4.474;2022-10-16T05:46:48;4.22;;;1.73;;
22949;SDS011;11641;51.018;4.474;2022-10-16T05:49:14;3.80;;;1.75;;
22949;SDS011;11641;51.018;4.474;2022-10-16T05:51:40;3.75;;;1.50;;
22949;SDS011;11641;51.018;4.474;2022-10-16T05:54:06;5.07;;;1.80;;
22949;SDS011;11641;51.018;4.474;2022-10-16T05:56:33;6.50;;;1.52;;
22949;SDS011;11641;51.018;4.474;2022-10-16T05:58:58;4.68;;;1.92;;
22949;SDS011;11641;51.018;4.474;2022-10-16T06:01:30;6.35;;;1.65;;
22949;SDS011;11641;51.018;4.474;2022-10-16T06:04:00;2.83;;;1.60;;
22949;SDS011;11641;51.018;4.474;2022-10-16T06:06:29;6.55;;;2.00;;
22949;SDS011;11641;51.018;4.474;2022-10-16T06:08:58;7.22;;;1.52;;
22949;SDS011;11641;51.018;4.474;2022-10-16T06:11:25;6.80;;;1.77;;
22949;SDS011;11641;51.018;4.474;2022-10-16T06:13:54;5.13;;;1.63;;
22949;SDS011;11641;51.018;4.474;2022-10-16T06:16:21;7.03;;;1.90;;
22949;SDS011;11641;51.018;4.474;2022-10-16T06:18:51;4.38;;;1.60;;
22949;SDS011;11641;51.018;4.474;2022-10-16T06:21:20;4.45;;;1.95;;
22949;SDS011;11641;51.018;4.474;2022-10-16T06:23:47;6.88;;;1.95;;
22949;SDS011;11641;51.018;4.474;2022-10-16T06:26:17;3.75;;;2.47;;
22949;SDS011;11641;51.018;4.474;2022-10-16T06:28:45;5.65;;;1.60;;
22949;SDS011;11641;51.018;4.474;2022-10-16T06:31:12;5.55;;;1.73;;
22949;SDS011;11641;51.018;4.474;2022-10-16T06:33:39;7.68;;;1.60;;
22949;SDS011;11641;51.018;4.474;2022-10-16T06:36:07;5.65;;;2.00;;
22949;SDS011;11641;51.018;4.474;2022-10-16T06:38:40;5.75;;;1.73;;
22949;SDS011;11641;51.018;4.474;2022-10-16T06:41:06;2.90;;;1.58;;
22949;SDS011;11641;51.018;4.474;2022-10-16T06:43:38;4.43;;;1.65;;
22949;SDS011;11641;51.018;4.474;2022-10-16T06:46:05;6.13;;;1.60;;
22949;SDS011;11641;51.018;4.474;2022-10-16T06:48:34;3.67;;;1.50;;
22949;SDS011;11641;51.018;4.474;2022-10-16T06:51:01;8.85;;;1.65;;
22949;SDS011;11641;51.018;4.474;2022-10-16T06:53:30;7.53;;;1.50;;
22949;SDS011;11641;51.018;4.474;2022-10-16T06:55:57;3.92;;;1.40;;
22949;SDS011;11641;51.018;4.474;2022-10-16T06:58:31;5.03;;;1.55;;
22949;SDS011;11641;51.018;4.474;2022-10-16T07:00:57;4.80;;;1.70;;
22949;SDS011;11641;51.018;4.474;2022-10-16T07:03:23;4.78;;;1.50;;
22949;SDS011;11641;51.018;4.474;2022-10-16T07:05:49;5.45;;;1.77;;
22949;SDS011;11641;51.018;4.474;2022-10-16T07:08:15;4.60;;;1.45;;
22949;SDS011;11641;51.018;4.474;2022-10-16T07:10:41;4.80;;;1.38;;
22949;SDS011;11641;51.018;4.474;2022-10-16T07:13:07;6.95;;;1.50;;
22949;SDS011;11641;51.018;4.474;2022-10-16T07:15:33;3.97;;;1.58;;
22949;SDS011;11641;51.018;4.474;2022-10-16T07:17:58;2.90;;;1.40;;
22949;SDS011;11641;51.018;4.474;2022-10-16T07:20:27;9.05;;;1.33;;
22949;SDS011;11641;51.018;4.474;2022-10-16T07:22:53;4.50;;;1.70;;
22949;SDS011;11641;51.018;4.474;2022-10-16T07:25:21;3.97;;;1.60;;
22949;SDS011;11641;51.018;4.474;2022-10-16T07:27:47;6.95;;;1.60;;
22949;SDS011;11641;51.018;4.474;2022-10-16T07:30:13;3.92;;;1.50;;
22949;SDS011;11641;51.018;4.474;2022-10-16T07:32:39;4.07;;;1.55;;
22949;SDS011;11641;51.018;4.474;2022-10-16T07:35:05;4.35;;;1.60;;
22949;SDS011;11641;51.018;4.474;2022-10-16T07:37:33;5.47;;;1.75;;
22949;SDS011;11641;51.018;4.474;2022-10-16T07:39:59;3.88;;;1.63;;
22949;SDS011;11641;51.018;4.474;2022-10-16T07:42:27;5.07;;;1.45;;
22949;SDS011;11641;51.018;4.474;2022-10-16T07:44:58;9.45;;;1.80;;
22949;SDS011;11641;51.018;4.474;2022-10-16T07:47:24;7.18;;;1.58;;
22949;SDS011;11641;51.018;4.474;2022-10-16T07:49:52;3.30;;;1.55;;
22949;SDS011;11641;51.018;4.474;2022-10-16T07:52:18;3.88;;;1.60;;
22949;SDS011;11641;51.018;4.474;2022-10-16T07:54:44;1.98;;;1.50;;
22949;SDS011;11641;51.018;4.474;2022-10-16T07:57:10;3.65;;;1.52;;
22949;SDS011;11641;51.018;4.474;2022-10-16T07:59:44;3.95;;;1.60;;
22949;SDS011;11641;51.018;4.474;2022-10-16T08:02:11;7.90;;;2.50;;
22949;SDS011;11641;51.018;4.474;2022-10-16T08:04:38;3.58;;;2.00;;
22949;SDS011;11641;51.018;4.474;2022-10-16T08:07:06;5.97;;;1.98;;
22949;SDS011;11641;51.018;4.474;2022-10-16T08:09:33;4.97;;;1.90;;
22949;SDS011;11641;51.018;4.474;2022-10-16T08:11:59;8.98;;;4.85;;
22949;SDS011;11641;51.018;4.474;2022-10-16T08:14:27;6.90;;;2.70;;
22949;SDS011;11641;51.018;4.474;2022-10-16T08:16:57;4.22;;;2.22;;
22949;SDS011;11641;51.018;4.474;2022-10-16T08:19:23;8.02;;;2.78;;
22949;SDS011;11641;51.018;4.474;2022-10-16T08:21:49;5.95;;;1.88;;
22949;SDS011;11641;51.018;4.474;2022-10-16T08:24:15;3.53;;;1.25;;
22949;SDS011;11641;51.018;4.474;2022-10-16T08:26:41;4.88;;;1.70;;
22949;SDS011;11641;51.018;4.474;2022-10-16T08:29:07;3.88;;;1.65;;
22949;SDS011;11641;51.018;4.474;2022-10-16T08:31:35;6.90;;;1.30;;
22949;SDS011;11641;51.018;4.474;2022-10-16T08:34:03;4.75;;;1.40;;
22949;SDS011;11641;51.018;4.474;2022-10-16T08:36:29;3.97;;;1.30;;
22949;SDS011;11641;51.018;4.474;2022-10-16T08:38:57;7.90;;;1.30;;
22949;SDS011;11641;51.018;4.474;2022-10-16T08:50:00;3.90;;;1.10;;
22949;SDS011;11641;51.018;4.474;2022-10-16T08:52:34;2.45;;;0.80;;
22949;SDS011;11641;51.018;4.474;2022-10-16T08:55:03;7.07;;;1.20;;
22949;SDS011;11641;51.018;4.474;2022-10-16T08:57:30;4.95;;;1.67;;
22949;SDS011;11641;51.018;4.474;2022-10-16T09:00:00;4.15;;;1.20;;
22949;SDS011;11641;51.018;4.474;2022-10-16T09:02:37;8.18;;;1.08;;
22949;SDS011;11641;51.018;4.474;2022-10-16T09:07:51;5.20;;;1.20;;
22949;SDS011;11641;51.018;4.474;2022-10-16T09:19:19;5.22;;;0.88;;
22949;SDS011;11641;51.018;4.474;2022-10-16T09:22:08;6.32;;;1.05;;
22949;SDS011;11641;51.018;4.474;2022-10-16T09:24:39;6.32;;;1.17;;
22949;SDS011;11641;51.018;4.474;2022-10-16T09:27:10;6.07;;;1.33;;
22949;SDS011;11641;51.018;4.474;2022-10-16T09:29:37;5.43;;;0.98;;
22949;SDS011;11641;51.018;4.474;2022-10-16T09:32:07;3.95;;;1.10;;
22949;SDS011;11641;51.018;4.474;2022-10-16T09:34:39;6.10;;;1.20;;
22949;SDS011;11641;51.018;4.474;2022-10-16T09:37:13;4.82;;;1.17;;
22949;SDS011;11641;51.018;4.474;2022-10-16T09:39:51;5.70;;;1.50;;
22949;SDS011;11641;51.018;4.474;2022-10-16T09:44:50;6.70;;;1.20;;
22949;SDS011;11641;51.018;4.474;2022-10-16T09:47:29;5.53;;;1.10;;
22949;SDS011;11641;51.018;4.474;2022-10-16T09:50:00;6.53;;;1.20;;
22949;SDS011;11641;51.018;4.474;2022-10-16T09:52:31;6.30;;;1.27;;
22949;SDS011;11641;51.018;4.474;2022-10-16T09:54:59;3.35;;;0.90;;
22949;SDS011;11641;51.018;4.474;2022-10-16T09:57:55;5.10;;;1.00;;
22949;SDS011;11641;51.018;4.474;2022-10-16T10:00:22;4.20;;;0.80;;
22949;SDS011;11641;51.018;4.474;2022-10-16T10:02:51;4.22;;;0.88;;
22949;SDS011;11641;51.018;4.474;2022-10-16T10:05:23;4.45;;;1.10;;
22949;SDS011;11641;51.018;4.474;2022-10-16T10:07:56;6.90;;;1.20;;
22949;SDS011;11641;51.018;4.474;2022-10-16T10:10:30;4.80;;;1.05;;
22949;SDS011;11641;51.018;4.474;2022-10-16T10:13:00;5.07;;;1.13;;
22949;SDS011;11641;51.018;4.474;2022-10-16T10:15:27;4.85;;;1.38;;
22949;SDS011;11641;51.018;4.474;2022-10-16T10:17:59;7.68;;;1.33;;
22949;SDS011;11641;51.018;4.474;2022-10-16T10:20:39;3.47;;;0.95;;
22949;SDS011;11641;51.018;4.474;2022-10-16T10:23:27;5.38;;;1.00;;
22949;SDS011;11641;51.018;4.474;2022-10-16T10:26:17;3.78;;;0.70;;
22949;SDS011;11641;51.018;4.474;2022-10-16T10:31:21;4.50;;;1.10;;
22949;SDS011;11641;51.018;4.474;2022-10-16T10:34:04;4.15;;;0.98;;
22949;SDS011;11641;51.018;4.474;2022-10-16T10:36:42;4.10;;;0.90;;
22949;SDS011;11641;51.018;4.474;2022-10-16T10:39:22;4.30;;;1.20;;
22949;SDS011;11641;51.018;4.474;2022-10-16T10:42:08;3.45;;;0.95;;
22949;SDS011;11641;51.018;4.474;2022-10-16T10:45:24;5.18;;;0.90;;
22949;SDS011;11641;51.018;4.474;2022-10-16T10:51:08;3.05;;;0.90;;
22949;SDS011;11641;51.018;4.474;2022-10-16T10:58:55;5.03;;;1.05;;
22949;SDS011;11641;51.018;4.474;2022-10-16T11:01:26;3.88;;;0.80;;
22949;SDS011;11641;51.018;4.474;2022-10-16T11:06:44;3.67;;;1.00;;
22949;SDS011;11641;51.018;4.474;2022-10-16T11:09:24;3.50;;;1.08;;
22949;SDS011;11641;51.018;4.474;2022-10-16T11:17:35;5.25;;;1.20;;
22949;SDS011;11641;51.018;4.474;2022-10-16T11:20:19;6.00;;;1.02;;
22949;SDS011;11641;51.018;4.474;2022-10-16T11:23:16;5.40;;;1.10;;
22949;SDS011;11641;51.018;4.474;2022-10-16T11:25:50;4.35;;;0.98;;
22949;SDS011;11641;51.018;4.474;2022-10-16T11:28:25;3.45;;;1.08;;
22949;SDS011;11641;51.018;4.474;2022-10-16T11:31:11;3.15;;;0.90;;
22949;SDS011;11641;51.018;4.474;2022-10-16T11:36:23;5.18;;;1.00;;
22949;SDS011;11641;51.018;4.474;2022-10-16T11:39:03;4.32;;;1.27;;
22949;SDS011;11641;51.018;4.474;2022-10-16T11:44:18;4.03;;;0.88;;
22949;SDS011;11641;51.018;4.474;2022-10-16T11:49:38;4.15;;;0.98;;
22949;SDS011;11641;51.018;4.474;2022-10-16T11:57:21;3.88;;;0.75;;
22949;SDS011;11641;51.018;4.474;2022-10-16T11:59:59;4.53;;;0.90;;
22949;SDS011;11641;51.018;4.474;2022-10-16T12:02:29;3.15;;;0.85;;
22949;SDS011;11641;51.018;4.474;2022-10-16T12:07:34;5.10;;;0.70;;
22949;SDS011;11641;51.018;4.474;2022-10-16T12:15:03;2.05;;;0.82;;
22949;SDS011;11641;51.018;4.474;2022-10-16T12:17:44;4.82;;;1.00;;
22949;SDS011;11641;51.018;4.474;2022-10-16T12:25:33;4.18;;;0.75;;
22949;SDS011;11641;51.018;4.474;2022-10-16T12:30:34;3.78;;;0.50;;
22949;SDS011;11641;51.018;4.474;2022-10-16T12:33:05;2.88;;;0.68;;
22949;SDS011;11641;51.018;4.474;2022-10-16T12:35:45;3.00;;;0.80;;
22949;SDS011;11641;51.018;4.474;2022-10-16T12:38:19;3.15;;;0.88;;
22949;SDS011;11641;51.018;4.474;2022-10-16T12:40:46;4.07;;;0.50;;
22949;SDS011;11641;51.018;4.474;2022-10-16T12:43:46;2.00;;;0.57;;
22949;SDS011;11641;51.018;4.474;2022-10-16T12:48:39;2.97;;;0.70;;
22949;SDS011;11641;51.018;4.474;2022-10-16T12:51:21;3.85;;;0.80;;
22949;SDS011;11641;51.018;4.474;2022-10-16T12:56:34;4.25;;;0.63;;
22949;SDS011;11641;51.018;4.474;2022-10-16T13:30:23;2.90;;;0.77;;
22949;SDS011;11641;51.018;4.474;2022-10-16T13:35:27;3.05;;;0.65;;
22949;SDS011;11641;51.018;4.474;2022-10-16T13:43:18;1.42;;;0.50;;
22949;SDS011;11641;51.018;4.474;2022-10-16T13:45:55;1.95;;;0.55;;
22949;SDS011;11641;51.018;4.474;2022-10-16T13:48:26;3.50;;;0.57;;
22949;SDS011;11641;51.018;4.474;2022-10-16T13:51:26;4.07;;;0.32;;
22949;SDS011;11641;51.018;4.474;2022-10-16T13:53:45;3.15;;;0.57;;
22949;SDS011;11641;51.018;4.474;2022-10-16T13:56:12;3.25;;;0.70;;
22949;SDS011;11641;51.018;4.474;2022-10-16T13:58:43;2.78;;;0.68;;
22949;SDS011;11641;51.018;4.474;2022-10-16T14:01:19;2.63;;;0.80;;
22949;SDS011;11641;51.018;4.474;2022-10-16T14:03:50;2.28;;;0.60;;
22949;SDS011;11641;51.018;4.474;2022-10-16T14:06:17;3.70;;;0.60;;
22949;SDS011;11641;51.018;4.474;2022-10-16T14:08:57;2.90;;;0.60;;
22949;SDS011;11641;51.018;4.474;2022-10-16T14:11:56;5.75;;;0.80;;
22949;SDS011;11641;51.018;4.474;2022-10-16T14:14:42;3.25;;;0.65;;
22949;SDS011;11641;51.018;4.474;2022-10-16T14:17:14;3.25;;;0.52;;
22949;SDS011;11641;51.018;4.474;2022-10-16T14:19:48;5.10;;;0.60;;
22949;SDS011;11641;51.018;4.474;2022-10-16T14:25:02;4.90;;;0.98;;
22949;SDS011;11641;51.018;4.474;2022-10-16T14:27:58;4.78;;;0.90;;
22949;SDS011;11641;51.018;4.474;2022-10-16T14:30:29;5.43;;;0.65;;
22949;SDS011;11641;51.018;4.474;2022-10-16T14:33:00;3.38;;;0.80;;
22949;SDS011;11641;51.018;4.474;2022-10-16T14:35:44;2.88;;;0.93;;
22949;SDS011;11641;51.018;4.474;2022-10-16T14:38:16;4.63;;;1.02;;
22949;SDS011;11641;51.018;4.474;2022-10-16T14:40:46;2.67;;;1.07;;
22949;SDS011;11641;51.018;4.474;2022-10-16T14:43:26;3.42;;;0.93;;
22949;SDS011;11641;51.018;4.474;2022-10-16T14:46:01;3.03;;;0.80;;
22949;SDS011;11641;51.018;4.474;2022-10-16T14:48:30;6.53;;;0.95;;
22949;SDS011;11641;51.018;4.474;2022-10-16T14:50:56;5.45;;;1.02;;
22949;SDS011;11641;51.018;4.474;2022-10-16T14:53:22;5.50;;;0.90;;
22949;SDS011;11641;51.018;4.474;2022-10-16T14:55:48;4.70;;;0.60;;
22949;SDS011;11641;51.018;4.474;2022-10-16T14:58:15;4.55;;;0.70;;
22949;SDS011;11641;51.018;4.474;2022-10-16T15:00:46;5.70;;;0.90;;
22949;SDS011;11641;51.018;4.474;2022-10-16T15:03:12;2.42;;;0.60;;
22949;SDS011;11641;51.018;4.474;2022-10-16T15:05:39;3.75;;;0.75;;
22949;SDS011;11641;51.018;4.474;2022-10-16T15:08:07;3.58;;;0.77;;
22949;SDS011;11641;51.018;4.474;2022-10-16T15:10:33;3.08;;;0.73;;
22949;SDS011;11641;51.018;4.474;2022-10-16T15:13:05;3.90;;;0.73;;
22949;SDS011;11641;51.018;4.474;2022-10-16T15:15:48;1.83;;;0.70;;
22949;SDS011;11641;51.018;4.474;2022-10-16T15:18:14;1.95;;;0.90;;
22949;SDS011;11641;51.018;4.474;2022-10-16T15:20:47;4.10;;;0.98;;
22949;SDS011;11641;51.018;4.474;2022-10-16T15:23:16;6.82;;;0.82;;
22949;SDS011;11641;51.018;4.474;2022-10-16T15:25:45;4.20;;;0.60;;
22949;SDS011;11641;51.018;4.474;2022-10-16T15:28:11;3.65;;;0.75;;
22949;SDS011;11641;51.018;4.474;2022-10-16T15:30:38;3.58;;;1.00;;
22949;SDS011;11641;51.018;4.474;2022-10-16T15:33:05;6.15;;;1.30;;
22949;SDS011;11641;51.018;4.474;2022-10-16T15:35:37;3.38;;;0.80;;
22949;SDS011;11641;51.018;4.474;2022-10-16T15:38:02;3.42;;;0.90;;
22949;SDS011;11641;51.018;4.474;2022-10-16T15:40:29;3.33;;;0.82;;
22949;SDS011;11641;51.018;4.474;2022-10-16T15:42:55;3.72;;;0.80;;
22949;SDS011;11641;51.018;4.474;2022-10-16T15:45:21;3.58;;;1.05;;
22949;SDS011;11641;51.018;4.474;2022-10-16T15:47:49;3.67;;;0.90;;
22949;SDS011;11641;51.018;4.474;2022-10-16T15:50:15;3.58;;;1.23;;
22949;SDS011;11641;51.018;4.474;2022-10-16T15:52:44;5.18;;;1.73;;
22949;SDS011;11641;51.018;4.474;2022-10-16T15:55:11;7.13;;;2.92;;
22949;SDS011;11641;51.018;4.474;2022-10-16T15:57:41;3.65;;;1.27;;
22949;SDS011;11641;51.018;4.474;2022-10-16T16:00:09;5.43;;;1.27;;
22949;SDS011;11641;51.018;4.474;2022-10-16T16:02:38;3.33;;;1.05;;
22949;SDS011;11641;51.018;4.474;2022-10-16T16:05:05;4.97;;;1.33;;
22949;SDS011;11641;51.018;4.474;2022-10-16T16:07:33;4.25;;;1.10;;
22949;SDS011;11641;51.018;4.474;2022-10-16T16:09:59;6.35;;;1.20;;
22949;SDS011;11641;51.018;4.474;2022-10-16T16:12:28;5.60;;;1.40;;
22949;SDS011;11641;51.018;4.474;2022-10-16T16:14:54;7.70;;;1.27;;
22949;SDS011;11641;51.018;4.474;2022-10-16T16:17:19;3.88;;;1.10;;
22949;SDS011;11641;51.018;4.474;2022-10-16T16:19:45;3.22;;;1.30;;
22949;SDS011;11641;51.018;4.474;2022-10-16T16:22:11;4.88;;;1.60;;
22949;SDS011;11641;51.018;4.474;2022-10-16T16:24:38;5.95;;;1.67;;
22949;SDS011;11641;51.018;4.474;2022-10-16T16:27:03;6.00;;;2.20;;
22949;SDS011;11641;51.018;4.474;2022-10-16T16:29:29;6.28;;;2.10;;
22949;SDS011;11641;51.018;4.474;2022-10-16T16:31:58;8.77;;;2.60;;
22949;SDS011;11641;51.018;4.474;2022-10-16T16:34:26;6.85;;;1.95;;
22949;SDS011;11641;51.018;4.474;2022-10-16T16:36:52;5.07;;;2.13;;
22949;SDS011;11641;51.018;4.474;2022-10-16T16:39:18;5.35;;;1.95;;
22949;SDS011;11641;51.018;4.474;2022-10-16T16:41:47;5.38;;;1.70;;
22949;SDS011;11641;51.018;4.474;2022-10-16T16:44:14;6.32;;;1.80;;
22949;SDS011;11641;51.018;4.474;2022-10-16T16:46:43;5.97;;;2.08;;
22949;SDS011;11641;51.018;4.474;2022-10-16T16:49:10;5.80;;;1.98;;
22949;SDS011;11641;51.018;4.474;2022-10-16T16:51:37;4.45;;;1.65;;
22949;SDS011;11641;51.018;4.474;2022-10-16T16:54:03;8.60;;;2.03;;
22949;SDS011;11641;51.018;4.474;2022-10-16T16:56:30;4.70;;;1.83;;
22949;SDS011;11641;51.018;4.474;2022-10-16T16:58:56;7.78;;;2.78;;
22949;SDS011;11641;51.018;4.474;2022-10-16T17:01:25;7.40;;;2.13;;
22949;SDS011;11641;51.018;4.474;2022-10-16T17:03:52;6.95;;;2.08;;
22949;SDS011;11641;51.018;4.474;2022-10-16T17:06:20;7.47;;;2.03;;
22949;SDS011;11641;51.018;4.474;2022-10-16T17:08:51;9.05;;;3.10;;
22949;SDS011;11641;51.018;4.474;2022-10-16T17:11:21;7.28;;;2.83;;
22949;SDS011;11641;51.018;4.474;2022-10-16T17:13:51;8.80;;;2.80;;
22949;SDS011;11641;51.018;4.474;2022-10-16T17:16:21;4.95;;;2.42;;
22949;SDS011;11641;51.018;4.474;2022-10-16T17:18:48;10.32;;;3.10;;
22949;SDS011;11641;51.018;4.474;2022-10-16T17:21:18;10.55;;;2.97;;
22949;SDS011;11641;51.018;4.474;2022-10-16T17:23:46;14.15;;;3.20;;